createdAt,value
2018-11-07T00:00:00.717Z,11.90
2018-11-07T00:02:30.204Z,11.90
2018-11-07T00:04:59.909Z,11.90
2018-11-07T00:07:28.455Z,11.90
2018-11-07T00:09:57.105Z,11.90
2018-11-07T00:12:25.623Z,11.90
2018-11-07T00:14:54.693Z,11.90
2018-11-07T00:17:23.223Z,11.80
2018-11-07T00:19:51.852Z,11.80
2018-11-07T00:22:20.372Z,11.80
2018-11-07T00:24:49.219Z,11.80
2018-11-07T00:27:19.494Z,11.70
2018-11-07T00:29:48.229Z,11.70
2018-11-07T00:32:16.747Z,11.60
2018-11-07T00:34:45.802Z,11.60
2018-11-07T00:37:14.677Z,11.60
2018-11-07T00:39:43.445Z,11.50
2018-11-07T00:42:11.991Z,11.50
2018-11-07T00:44:41.095Z,11.40
2018-11-07T00:47:10.130Z,11.30
2018-11-07T00:49:38.762Z,11.30
2018-11-07T00:52:07.330Z,11.30
2018-11-07T00:54:36.509Z,11.30
2018-11-07T00:57:05.300Z,11.20
2018-11-07T00:59:34.447Z,11.20
2018-11-07T01:02:02.996Z,11.20
2018-11-07T01:04:32.224Z,11.20
2018-11-07T01:07:01.480Z,11.10
2018-11-07T01:09:30.651Z,11.10
2018-11-07T01:11:59.506Z,11.10
2018-11-07T01:14:28.515Z,11.10
2018-11-07T01:16:57.036Z,11.10
2018-11-07T01:19:25.839Z,11.10
2018-11-07T01:21:54.413Z,11.10
2018-11-07T01:24:23.019Z,11.10
2018-11-07T01:26:51.554Z,11.00
2018-11-07T01:29:21.832Z,11.00
2018-11-07T01:31:50.946Z,11.00
2018-11-07T01:34:19.536Z,11.00
2018-11-07T01:36:48.680Z,11.00
2018-11-07T01:39:17.307Z,11.00
2018-11-07T01:41:45.922Z,11.00
2018-11-07T01:44:14.676Z,10.90
2018-11-07T01:46:43.873Z,10.80
2018-11-07T01:49:13.336Z,10.80
2018-11-07T01:51:41.894Z,10.80
2018-11-07T01:54:10.505Z,10.80
2018-11-07T01:56:39.018Z,10.80
2018-11-07T01:59:08.349Z,10.70
2018-11-07T02:01:36.911Z,10.70
2018-11-07T02:04:05.906Z,10.70
2018-11-07T02:06:35.003Z,10.70
2018-11-07T02:09:04.132Z,10.70
2018-11-07T02:11:32.751Z,10.70
2018-11-07T02:14:01.974Z,10.70
2018-11-07T02:16:30.506Z,10.60
2018-11-07T02:18:59.216Z,10.60
2018-11-07T02:21:27.735Z,10.60
2018-11-07T02:23:56.388Z,10.50
2018-11-07T02:26:24.981Z,10.50
2018-11-07T02:28:55.714Z,10.50
2018-11-07T02:31:24.223Z,10.40
2018-11-07T02:33:52.818Z,10.40
2018-11-07T02:36:21.371Z,10.40
2018-11-07T02:38:49.978Z,10.30
2018-11-07T02:41:18.484Z,10.30
2018-11-07T02:43:47.119Z,10.30
2018-11-07T02:46:15.658Z,10.30
2018-11-07T02:48:44.684Z,10.20
2018-11-07T02:51:13.196Z,10.30
2018-11-07T02:53:41.780Z,10.30
2018-11-07T02:56:10.297Z,10.30
2018-11-07T02:58:38.889Z,10.20
2018-11-07T03:01:07.468Z,10.20
2018-11-07T03:03:36.040Z,10.10
2018-11-07T03:06:04.835Z,10.10
2018-11-07T03:08:34.484Z,10.10
2018-11-07T03:11:04.249Z,10.00
2018-11-07T03:13:33.710Z,10.00
2018-11-07T03:16:02.290Z,10.10
2018-11-07T03:18:31.166Z,10.00
2018-11-07T03:21:00.660Z,10.10
2018-11-07T03:23:29.227Z,10.10
2018-11-07T03:25:58.696Z,10.00
2018-11-07T03:28:27.800Z,10.00
2018-11-07T03:30:56.404Z,10.00
2018-11-07T03:33:25.043Z,10.00
2018-11-07T03:35:53.777Z,10.00
2018-11-07T03:38:22.392Z,10.00
2018-11-07T03:40:50.924Z,10.00
2018-11-07T03:43:20.276Z,10.00
2018-11-07T03:45:54.150Z,10.00
2018-11-07T03:48:22.724Z,10.00
2018-11-07T03:50:51.308Z,10.00
2018-11-07T03:53:20.404Z,10.00
2018-11-07T03:55:48.892Z,9.90
2018-11-07T03:58:17.426Z,9.90
2018-11-07T04:00:47.214Z,9.90
2018-11-07T04:03:16.212Z,9.80
2018-11-07T04:05:44.854Z,9.80
2018-11-07T04:08:14.539Z,9.80
2018-11-07T04:10:43.120Z,9.70
2018-11-07T04:13:11.822Z,9.70
2018-11-07T04:15:41.142Z,9.70
2018-11-07T04:18:09.888Z,9.70
2018-11-07T04:20:39.468Z,9.70
2018-11-07T04:23:08.165Z,9.70
2018-11-07T04:25:36.764Z,9.80
2018-11-07T04:28:06.288Z,9.70
2018-11-07T04:30:35.146Z,9.80
2018-11-07T04:33:03.732Z,9.70
2018-11-07T04:35:32.311Z,9.80
2018-11-07T04:38:00.800Z,9.80
2018-11-07T04:40:29.623Z,9.80
2018-11-07T04:42:58.208Z,9.80
2018-11-07T04:45:26.852Z,9.80
2018-11-07T04:47:55.384Z,9.80
2018-11-07T04:50:24.308Z,9.80
2018-11-07T04:52:52.836Z,9.80
2018-11-07T04:55:21.476Z,9.70
2018-11-07T04:57:50.630Z,9.70
2018-11-07T05:00:20.889Z,9.70
2018-11-07T05:02:51.092Z,9.70
2018-11-07T05:05:19.608Z,9.70
2018-11-07T05:07:49.040Z,9.70
2018-11-07T05:10:17.630Z,9.70
2018-11-07T05:12:46.264Z,9.70
2018-11-07T05:15:14.879Z,9.70
2018-11-07T05:17:43.374Z,9.70
2018-11-07T05:20:12.198Z,9.70
2018-11-07T05:22:41.332Z,9.70
2018-11-07T05:25:10.896Z,9.70
2018-11-07T05:27:40.517Z,9.70
2018-11-07T05:30:09.952Z,9.70
2018-11-07T05:32:39.515Z,9.70
2018-11-07T05:35:08.304Z,9.80
2018-11-07T05:37:36.876Z,9.70
2018-11-07T05:40:05.865Z,9.70
2018-11-07T05:42:35.310Z,9.70
2018-11-07T05:45:03.976Z,9.70
2018-11-07T05:47:32.596Z,9.70
2018-11-07T05:50:01.100Z,9.70
2018-11-07T05:52:29.804Z,9.60
2018-11-07T05:54:58.324Z,9.60
2018-11-07T05:57:26.948Z,9.60
2018-11-07T05:59:55.542Z,9.50
2018-11-07T06:02:25.826Z,9.60
2018-11-07T06:04:55.440Z,9.60
2018-11-07T06:07:25.858Z,9.60
2018-11-07T06:09:54.630Z,9.60
2018-11-07T06:12:23.650Z,9.60
2018-11-07T06:14:52.164Z,9.60
2018-11-07T06:17:20.688Z,9.50
2018-11-07T06:19:49.909Z,9.50
2018-11-07T06:22:18.457Z,9.60
2018-11-07T06:24:47.291Z,9.50
2018-11-07T06:27:16.365Z,9.60
2018-11-07T06:29:44.991Z,9.50
2018-11-07T06:32:13.744Z,9.50
2018-11-07T06:34:42.347Z,9.50
2018-11-07T06:37:11.320Z,9.60
2018-11-07T06:39:40.373Z,9.60
2018-11-07T06:42:08.988Z,9.60
2018-11-07T06:44:37.563Z,9.60
2018-11-07T06:47:06.891Z,9.60
2018-11-07T06:49:35.429Z,9.60
2018-11-07T06:52:04.170Z,9.60
2018-11-07T06:54:32.657Z,9.60
2018-11-07T06:57:01.621Z,9.70
2018-11-07T06:59:30.641Z,9.70
2018-11-07T07:01:59.226Z,9.70
2018-11-07T07:04:27.881Z,9.70
2018-11-07T07:06:56.507Z,9.70
2018-11-07T07:09:27.006Z,9.80
2018-11-07T07:11:55.964Z,9.80
2018-11-07T07:14:24.500Z,9.90
2018-11-07T07:16:53.357Z,9.90
2018-11-07T07:19:21.892Z,10.00
2018-11-07T07:21:50.479Z,10.10
2018-11-07T07:24:19.789Z,10.10
2018-11-07T07:26:48.956Z,10.10
2018-11-07T07:29:18.004Z,10.20
2018-11-07T07:31:46.525Z,10.30
2018-11-07T07:34:15.987Z,10.40
2018-11-07T07:36:44.527Z,10.50
2018-11-07T07:39:14.391Z,10.50
2018-11-07T07:41:43.477Z,10.60
2018-11-07T07:44:12.067Z,10.70
2018-11-07T07:46:41.550Z,10.80
2018-11-07T07:49:10.403Z,10.90
2018-11-07T07:51:39.915Z,11.00
2018-11-07T07:54:08.448Z,11.10
2018-11-07T07:56:36.993Z,11.20
2018-11-07T07:59:06.352Z,11.20
2018-11-07T08:01:35.359Z,11.30
2018-11-07T08:04:06.602Z,11.40
2018-11-07T08:06:36.949Z,11.50
2018-11-07T08:09:10.235Z,11.60
2018-11-07T08:11:39.254Z,11.70
2018-11-07T08:14:08.796Z,11.80
2018-11-07T08:16:37.775Z,11.90
2018-11-07T08:19:07.144Z,12.10
2018-11-07T08:21:37.165Z,12.30
2018-11-07T08:24:05.725Z,12.40
2018-11-07T08:26:35.398Z,12.50
2018-11-07T08:29:05.951Z,12.70
2018-11-07T08:31:34.412Z,12.80
2018-11-07T08:34:03.085Z,12.90
2018-11-07T08:36:32.587Z,13.00
2018-11-07T08:39:01.142Z,13.10
2018-11-07T08:41:29.861Z,13.20
2018-11-07T08:43:58.373Z,13.30
2018-11-07T08:46:27.160Z,13.40
2018-11-07T08:48:55.668Z,13.40
2018-11-07T08:51:24.593Z,13.50
2018-11-07T08:53:53.642Z,13.60
2018-11-07T08:56:22.214Z,13.70
2018-11-07T08:58:50.973Z,13.70
2018-11-07T09:01:19.573Z,13.80
2018-11-07T09:03:48.173Z,13.90
2018-11-07T09:06:16.774Z,13.90
2018-11-07T09:08:45.704Z,14.00
2018-11-07T09:11:14.241Z,14.10
2018-11-07T09:13:42.853Z,14.20
2018-11-07T09:16:11.441Z,14.20
2018-11-07T09:18:40.248Z,14.40
2018-11-07T09:21:09.438Z,14.50
2018-11-07T09:23:38.240Z,14.50
2018-11-07T09:26:08.572Z,14.60
2018-11-07T09:28:37.251Z,14.70
2018-11-07T09:31:05.819Z,14.80
2018-11-07T09:33:34.648Z,14.80
2018-11-07T09:36:03.178Z,14.90
2018-11-07T09:38:32.283Z,14.90
2018-11-07T09:41:00.782Z,15.00
2018-11-07T09:43:29.781Z,15.00
2018-11-07T09:45:58.998Z,15.00
2018-11-07T09:48:27.770Z,15.00
2018-11-07T09:50:56.436Z,15.10
2018-11-07T09:53:25.556Z,15.10
2018-11-07T09:55:54.321Z,15.00
2018-11-07T09:58:23.622Z,15.00
2018-11-07T10:00:53.283Z,15.10
2018-11-07T10:03:22.349Z,15.10
2018-11-07T10:05:50.863Z,15.10
2018-11-07T10:08:19.434Z,15.00
2018-11-07T10:10:47.948Z,15.10
2018-11-07T10:13:17.090Z,15.00
2018-11-07T10:15:45.645Z,15.00
2018-11-07T10:18:14.490Z,15.00
2018-11-07T10:20:43.075Z,15.00
2018-11-07T10:23:11.827Z,15.00
2018-11-07T10:25:40.989Z,15.00
2018-11-07T10:28:10.134Z,15.00
2018-11-07T10:30:38.558Z,15.00
2018-11-07T10:33:07.782Z,14.90
2018-11-07T10:35:36.890Z,14.90
2018-11-07T10:38:06.339Z,14.90
2018-11-07T10:40:34.843Z,14.90
2018-11-07T10:43:03.594Z,14.80
2018-11-07T10:45:32.158Z,14.80
2018-11-07T10:48:00.921Z,14.80
2018-11-07T10:50:29.484Z,14.70
2018-11-07T10:52:58.715Z,14.70
2018-11-07T10:55:27.243Z,14.70
2018-11-07T10:57:55.796Z,14.60
2018-11-07T11:00:29.892Z,14.60
2018-11-07T11:03:09.922Z,14.60
2018-11-07T11:05:39.367Z,14.50
2018-11-07T11:08:08.908Z,14.50
2018-11-07T11:10:37.829Z,14.50
2018-11-07T11:13:06.826Z,14.50
2018-11-07T11:15:35.352Z,14.40
2018-11-07T11:18:04.212Z,14.40
2018-11-07T11:20:32.828Z,14.40
2018-11-07T11:23:01.768Z,14.30
2018-11-07T11:25:30.883Z,14.30
2018-11-07T11:27:59.632Z,14.30
2018-11-07T11:30:28.619Z,14.30
2018-11-07T11:32:57.194Z,14.30
2018-11-07T11:35:25.881Z,14.30
2018-11-07T11:37:54.341Z,14.30
2018-11-07T11:40:22.957Z,14.30
2018-11-07T11:42:52.421Z,14.30
2018-11-07T11:45:20.951Z,14.40
2018-11-07T11:47:49.581Z,14.30
2018-11-07T11:50:19.669Z,14.40
2018-11-07T11:52:50.115Z,14.40
2018-11-07T11:55:20.256Z,14.30
2018-11-07T11:57:48.883Z,14.40
2018-11-07T12:00:18.668Z,14.40
2018-11-07T12:02:47.968Z,14.40
2018-11-07T12:05:17.534Z,14.40
2018-11-07T12:07:47.219Z,14.40
2018-11-07T12:10:20.608Z,14.40
2018-11-07T12:12:51.683Z,14.40
2018-11-07T12:15:21.582Z,14.40
2018-11-07T12:17:50.163Z,14.50
2018-11-07T12:20:19.506Z,14.50
2018-11-07T12:22:48.271Z,14.50
2018-11-07T12:25:18.480Z,14.60
2018-11-07T12:27:46.968Z,14.60
2018-11-07T12:30:17.620Z,14.60
2018-11-07T12:32:47.521Z,14.60
2018-11-07T12:35:17.099Z,14.60
2018-11-07T12:37:45.714Z,14.60
2018-11-07T12:40:15.167Z,14.60
2018-11-07T12:42:43.837Z,14.60
2018-11-07T12:45:14.042Z,14.70
2018-11-07T12:47:43.072Z,14.70
2018-11-07T12:50:15.390Z,14.70
2018-11-07T12:52:44.968Z,14.70
2018-11-07T12:55:13.757Z,14.70
2018-11-07T12:57:42.351Z,14.70
2018-11-07T13:00:16.368Z,14.70
2018-11-07T13:02:45.220Z,14.70
2018-11-07T13:05:15.077Z,14.80
2018-11-07T13:07:44.498Z,14.70
2018-11-07T13:10:15.702Z,14.80
2018-11-07T13:12:45.502Z,14.80
2018-11-07T13:15:15.260Z,14.80
2018-11-07T13:17:44.772Z,14.80
2018-11-07T13:20:15.734Z,14.90
2018-11-07T13:22:45.816Z,14.90
2018-11-07T13:25:15.602Z,14.90
2018-11-07T13:27:44.301Z,14.90
2018-11-07T13:30:16.084Z,14.90
2018-11-07T13:32:44.939Z,15.00
2018-11-07T13:35:14.262Z,15.00
2018-11-07T13:37:44.417Z,15.00
2018-11-07T13:40:14.978Z,15.00
2018-11-07T13:42:43.630Z,15.00
2018-11-07T13:45:14.526Z,15.10
2018-11-07T13:47:44.572Z,15.10
2018-11-07T13:50:13.753Z,15.10
2018-11-07T13:52:42.810Z,15.10
2018-11-07T13:55:12.344Z,15.10
2018-11-07T13:57:41.354Z,15.10
2018-11-07T14:00:12.292Z,15.10
2018-11-07T14:02:41.523Z,15.10
2018-11-07T14:05:11.520Z,15.10
2018-11-07T14:07:40.126Z,15.10
2018-11-07T14:10:12.279Z,15.00
2018-11-07T14:12:41.658Z,15.00
2018-11-07T14:15:12.690Z,14.90
2018-11-07T14:17:42.140Z,14.90
2018-11-07T14:20:11.415Z,14.90
2018-11-07T14:22:40.571Z,14.80
2018-11-07T14:25:10.415Z,14.80
2018-11-07T14:27:41.334Z,14.80
2018-11-07T14:30:14.141Z,14.80
2018-11-07T14:32:48.541Z,14.70
2018-11-07T14:35:17.236Z,14.70
2018-11-07T14:37:45.802Z,14.70
2018-11-07T14:40:14.607Z,14.60
2018-11-07T14:42:43.114Z,14.60
2018-11-07T14:45:12.797Z,14.60
2018-11-07T14:47:42.227Z,14.50
2018-11-07T14:50:11.657Z,14.50
2018-11-07T14:52:40.693Z,14.40
2018-11-07T14:55:10.495Z,14.40
2018-11-07T14:57:39.286Z,14.40
2018-11-07T15:00:09.923Z,14.30
2018-11-07T15:02:39.115Z,14.30
2018-11-07T15:05:09.552Z,14.20
2018-11-07T15:07:38.123Z,14.20
2018-11-07T15:10:08.093Z,14.20
2018-11-07T15:12:36.938Z,14.10
2018-11-07T15:15:07.081Z,14.10
2018-11-07T15:17:35.633Z,14.00
2018-11-07T15:20:04.782Z,14.00
2018-11-07T15:22:33.344Z,13.90
2018-11-07T15:25:02.447Z,13.90
2018-11-07T15:27:31.497Z,13.80
2018-11-07T15:30:00.831Z,13.80
2018-11-07T15:32:29.517Z,13.70
2018-11-07T15:34:58.050Z,13.70
2018-11-07T15:37:26.581Z,13.60
2018-11-07T15:39:55.349Z,13.60
2018-11-07T15:42:23.913Z,13.50
2018-11-07T15:44:53.227Z,13.50
2018-11-07T15:47:21.796Z,13.50
2018-11-07T15:49:56.037Z,13.40
2018-11-07T15:52:24.767Z,13.40
2018-11-07T15:54:53.275Z,13.30
2018-11-07T15:57:22.107Z,13.30
2018-11-07T15:59:50.679Z,13.30
2018-11-07T16:02:20.288Z,13.20
2018-11-07T16:04:49.276Z,13.20
2018-11-07T16:07:18.293Z,13.20
2018-11-07T16:09:47.153Z,13.10
2018-11-07T16:12:15.860Z,13.10
2018-11-07T16:14:44.372Z,13.00
2018-11-07T16:17:13.311Z,13.00
2018-11-07T16:19:41.807Z,13.00
2018-11-07T16:22:10.357Z,12.90
2018-11-07T16:24:39.092Z,12.90
2018-11-07T16:27:08.228Z,12.90
2018-11-07T16:29:36.945Z,12.80
2018-11-07T16:32:05.916Z,12.80
2018-11-07T16:34:34.457Z,12.90
2018-11-07T16:37:03.533Z,12.80
2018-11-07T16:39:32.174Z,12.80
2018-11-07T16:42:00.701Z,12.80
2018-11-07T16:44:29.601Z,12.80
2018-11-07T16:46:58.190Z,12.70
2018-11-07T16:49:26.915Z,12.70
2018-11-07T16:51:55.433Z,12.60
2018-11-07T16:54:24.527Z,12.70
2018-11-07T16:56:53.053Z,12.60
2018-11-07T16:59:21.703Z,12.60
2018-11-07T17:01:50.517Z,12.60
2018-11-07T17:04:19.489Z,12.50
2018-11-07T17:06:48.059Z,12.50
2018-11-07T17:09:16.685Z,12.50
2018-11-07T17:11:45.231Z,12.50
2018-11-07T17:14:14.177Z,12.40
2018-11-07T17:16:42.729Z,12.40
2018-11-07T17:19:11.608Z,12.40
2018-11-07T17:21:40.194Z,12.30
2018-11-07T17:24:09.021Z,12.30
2018-11-07T17:26:38.142Z,12.20
2018-11-07T17:29:07.578Z,12.20
2018-11-07T17:31:36.225Z,12.20
2018-11-07T17:34:05.156Z,12.10
2018-11-07T17:36:33.729Z,12.10
2018-11-07T17:39:02.538Z,12.10
2018-11-07T17:41:31.087Z,12.00
2018-11-07T17:44:00.304Z,12.00
2018-11-07T17:46:28.815Z,12.00
2018-11-07T17:48:57.635Z,11.90
2018-11-07T17:51:26.276Z,11.90
2018-11-07T17:53:55.469Z,11.90
2018-11-07T17:56:24.470Z,11.90
2018-11-07T17:58:53.657Z,11.90
2018-11-07T18:01:22.348Z,11.90
2018-11-07T18:03:51.092Z,11.90
2018-11-07T18:06:19.685Z,11.80
2018-11-07T18:08:48.423Z,11.80
2018-11-07T18:11:16.979Z,11.80
2018-11-07T18:13:46.257Z,11.80
2018-11-07T18:16:14.917Z,11.80
2018-11-07T18:18:44.133Z,11.80
2018-11-07T18:21:13.063Z,11.70
2018-11-07T18:23:41.963Z,11.70
2018-11-07T18:26:11.075Z,11.70
2018-11-07T18:28:39.946Z,11.60
2018-11-07T18:31:09.116Z,11.60
2018-11-07T18:33:38.123Z,11.60
2018-11-07T18:36:06.712Z,11.60
2018-11-07T18:38:35.491Z,11.50
2018-11-07T18:41:05.324Z,11.50
2018-11-07T18:43:34.090Z,11.40
2018-11-07T18:46:03.001Z,11.40
2018-11-07T18:48:31.543Z,11.30
2018-11-07T18:51:02.123Z,11.20
2018-11-07T18:53:30.917Z,11.20
2018-11-07T18:56:00.018Z,11.20
2018-11-07T18:58:28.715Z,11.10
2018-11-07T19:00:57.703Z,11.10
2018-11-07T19:03:26.455Z,11.00
2018-11-07T19:05:55.013Z,11.00
2018-11-07T19:08:23.843Z,10.90
2018-11-07T19:10:52.754Z,10.90
2018-11-07T19:13:22.963Z,10.90
2018-11-07T19:15:51.565Z,10.90
2018-11-07T19:18:21.225Z,10.80
2018-11-07T19:20:50.425Z,10.90
2018-11-07T19:23:19.423Z,10.80
2018-11-07T19:25:48.015Z,10.80
2018-11-07T19:28:17.417Z,10.80
2018-11-07T19:30:45.969Z,10.80
2018-11-07T19:33:15.197Z,10.80
2018-11-07T19:35:45.993Z,10.80
2018-11-07T19:38:14.667Z,10.80
2018-11-07T19:40:43.839Z,10.80
2018-11-07T19:43:12.593Z,10.80
2018-11-07T19:45:41.150Z,10.80
2018-11-07T19:48:09.969Z,10.80
2018-11-07T19:50:38.571Z,10.80
2018-11-07T19:53:07.944Z,10.80
2018-11-07T19:55:36.479Z,10.70
2018-11-07T19:58:05.843Z,10.70
2018-11-07T20:00:34.451Z,10.70
2018-11-07T20:03:03.696Z,10.70
2018-11-07T20:05:33.004Z,10.70
2018-11-07T20:08:03.221Z,10.70
2018-11-07T20:10:31.810Z,10.70
2018-11-07T20:13:02.579Z,10.70
2018-11-07T20:15:31.824Z,10.70
2018-11-07T20:18:00.533Z,10.70
2018-11-07T20:20:29.226Z,10.60
2018-11-07T20:22:58.549Z,10.70
2018-11-07T20:25:28.631Z,10.60
2018-11-07T20:27:57.759Z,10.60
2018-11-07T20:30:26.373Z,10.60
2018-11-07T20:32:55.311Z,10.60
2018-11-07T20:35:24.130Z,10.60
2018-11-07T20:37:52.907Z,10.60
2018-11-07T20:40:22.690Z,10.60
2018-11-07T20:42:52.317Z,10.50
2018-11-07T20:45:20.856Z,10.50
2018-11-07T20:47:50.506Z,10.40
2018-11-07T20:50:21.241Z,10.50
2018-11-07T20:52:51.283Z,10.40
2018-11-07T20:55:20.005Z,10.40
2018-11-07T20:57:48.578Z,10.30
2018-11-07T21:00:20.383Z,10.30
2018-11-07T21:02:49.980Z,10.30
2018-11-07T21:05:19.653Z,10.30
2018-11-07T21:07:48.419Z,10.30
2018-11-07T21:10:20.273Z,10.30
2018-11-07T21:12:50.311Z,10.30
2018-11-07T21:15:20.467Z,10.30
2018-11-07T21:17:50.957Z,10.20
2018-11-07T21:20:19.537Z,10.20
2018-11-07T21:22:48.323Z,10.20
2018-11-07T21:25:17.373Z,10.20
2018-11-07T21:27:46.679Z,10.20
2018-11-07T21:30:16.224Z,10.20
2018-11-07T21:32:45.291Z,10.10
2018-11-07T21:35:14.552Z,10.10
2018-11-07T21:37:43.117Z,10.10
2018-11-07T21:40:14.180Z,10.10
2018-11-07T21:42:43.251Z,10.10
2018-11-07T21:45:13.365Z,10.10
2018-11-07T21:47:42.625Z,10.00
2018-11-07T21:50:12.729Z,10.00
2018-11-07T21:52:41.679Z,10.00
2018-11-07T21:55:10.177Z,9.90
2018-11-07T21:57:39.317Z,9.90
2018-11-07T22:00:16.061Z,9.90
2018-11-07T22:02:45.292Z,9.90
2018-11-07T22:05:14.593Z,9.90
2018-11-07T22:07:43.559Z,10.00
2018-11-07T22:10:13.590Z,10.00
2018-11-07T22:12:42.200Z,10.00
2018-11-07T22:15:11.192Z,10.00
2018-11-07T22:17:40.451Z,9.90
2018-11-07T22:20:12.414Z,9.90
2018-11-07T22:22:40.899Z,9.90
2018-11-07T22:25:10.021Z,9.90
2018-11-07T22:27:39.099Z,9.90
2018-11-07T22:30:09.840Z,9.80
2018-11-07T22:32:39.024Z,9.90
2018-11-07T22:35:09.344Z,9.80
2018-11-07T22:37:37.850Z,9.80
2018-11-07T22:40:08.259Z,9.80
2018-11-07T22:42:36.760Z,9.80
2018-11-07T22:45:06.451Z,9.80
2018-11-07T22:47:35.425Z,9.80
2018-11-07T22:50:04.249Z,9.80
2018-11-07T22:52:32.741Z,9.80
2018-11-07T22:55:01.416Z,9.80
2018-11-07T22:57:30.196Z,9.70
2018-11-07T22:59:59.605Z,9.70
2018-11-07T23:02:28.406Z,9.70
2018-11-07T23:04:56.926Z,9.70
2018-11-07T23:07:25.664Z,9.60
2018-11-07T23:09:54.877Z,9.60
2018-11-07T23:12:23.446Z,9.60
2018-11-07T23:14:52.331Z,9.60
2018-11-07T23:17:20.863Z,9.60
2018-11-07T23:19:49.706Z,9.60
2018-11-07T23:22:18.195Z,9.60
2018-11-07T23:24:47.086Z,9.50
2018-11-07T23:27:16.244Z,9.50
2018-11-07T23:29:45.418Z,9.50
2018-11-07T23:32:14.033Z,9.50
2018-11-07T23:34:42.566Z,9.50
2018-11-07T23:37:11.312Z,9.50
2018-11-07T23:39:39.826Z,9.50
2018-11-07T23:42:10.740Z,9.50
2018-11-07T23:44:39.274Z,9.40
2018-11-07T23:47:08.168Z,9.40
2018-11-07T23:49:36.741Z,9.40
2018-11-07T23:52:05.755Z,9.40
2018-11-07T23:54:35.029Z,9.40
2018-11-07T23:57:03.542Z,9.30
2018-11-07T23:59:32.362Z,9.30
